Time;durP1;ratioP1;P1;durP2;ratioP2;P2;SDS_P1;SDS_P2;PMS_P1;PMS_P2;Temp;Humidity;BMP_temperature;BMP_pressure;BME280_temperature;BME280_humidity;BME280_pressure;Samples;Min_cycle;Max_cycle;Signal;HPM_P1;HPM_P2
2022/03/13 00:00:59;;;;;;;1.35;0.88;;;20.60;49.00;;;;;;5128037;27;20581;-63
2022/03/13 00:03:28;;;;;;;2.45;0.75;;;20.60;49.10;;;;;;5125808;27;20680;-63
2022/03/13 00:05:55;;;;;;;0.88;0.88;;;20.50;49.30;;;;;;5120220;27;20049;-63
2022/03/13 00:08:25;;;;;;;1.10;0.47;;;20.50;49.40;;;;;;5112430;28;20043;-63
2022/03/13 00:10:56;;;;;;;1.25;1.08;;;20.40;49.60;;;;;;5124141;27;20142;-66
2022/03/13 00:13:30;;;;;;;0.60;0.47;;;20.40;49.70;;;;;;5101652;28;20564;-65
2022/03/13 00:15:59;;;;;;;1.83;0.93;;;20.40;50.00;;;;;;5118754;27;20057;-63
2022/03/13 00:18:27;;;;;;;2.70;1.05;;;20.30;50.40;;;;;;5122972;27;20681;-64
2022/03/13 00:20:55;;;;;;;1.13;0.60;;;20.40;50.60;;;;;;5118621;27;20034;-64
2022/03/13 00:23:23;;;;;;;1.58;0.30;;;20.30;50.60;;;;;;5113092;27;20042;-66
2022/03/13 00:25:54;;;;;;;2.78;0.63;;;20.30;50.70;;;;;;5113150;27;20039;-66
2022/03/13 00:28:21;;;;;;;2.45;0.65;;;20.30;50.90;;;;;;5127604;27;20043;-66
2022/03/13 00:30:48;;;;;;;1.02;0.73;;;20.30;50.90;;;;;;5131198;27;20039;-67
2022/03/13 00:33:15;;;;;;;5.60;0.70;;;20.30;51.00;;;;;;5131216;27;20129;-66
2022/03/13 00:35:43;;;;;;;1.35;0.60;;;20.20;51.00;;;;;;5119183;27;20030;-69
2022/03/13 00:38:11;;;;;;;1.95;0.20;;;20.20;51.00;;;;;;5128016;27;20045;-66
2022/03/13 00:40:39;;;;;;;1.85;0.30;;;20.20;51.10;;;;;;5120957;27;20403;-66
2022/03/13 00:43:07;;;;;;;0.57;0.30;;;20.20;51.10;;;;;;5120937;27;20600;-65
2022/03/13 00:45:34;;;;;;;9.80;1.73;;;20.20;51.20;;;;;;5128169;27;20529;-66
2022/03/13 00:48:01;;;;;;;1.60;0.57;;;20.10;51.20;;;;;;5121882;27;20129;-66
2022/03/13 00:50:29;;;;;;;0.73;0.55;;;20.10;51.20;;;;;;5114741;27;20023;-66
2022/03/13 00:52:57;;;;;;;0.85;0.40;;;20.10;51.20;;;;;;5126238;27;20499;-65
2022/03/13 00:55:24;;;;;;;0.38;0.30;;;20.10;51.30;;;;;;5126816;27;20047;-64
2022/03/13 00:57:51;;;;;;;1.88;0.60;;;20.10;51.30;;;;;;5123019;27;20058;-65
2022/03/13 01:00:18;;;;;;;0.50;0.40;;;20.00;51.20;;;;;;5107247;27;20055;-64
2022/03/13 01:02:46;;;;;;;2.72;0.70;;;20.00;51.30;;;;;;5116390;27;20123;-63
2022/03/13 01:05:23;;;;;;;5.80;0.38;;;20.00;51.40;;;;;;5122475;27;20111;-65
2022/03/13 01:07:51;;;;;;;2.50;0.45;;;20.00;51.80;;;;;;5112129;27;20047;-66
2022/03/13 01:10:20;;;;;;;0.47;0.30;;;20.00;52.00;;;;;;5123479;27;20529;-65
2022/03/13 01:12:49;;;;;;;4.75;0.25;;;20.00;52.10;;;;;;5130449;27;20049;-64
2022/03/13 01:15:16;;;;;;;1.88;0.25;;;20.00;52.20;;;;;;5123636;27;20038;-65
2022/03/13 01:17:44;;;;;;;1.58;0.30;;;19.90;52.00;;;;;;5117534;27;20063;-65
2022/03/13 01:20:17;;;;;;;0.55;0.25;;;19.90;52.00;;;;;;5116920;27;20039;-64
2022/03/13 01:22:45;;;;;;;1.20;0.52;;;20.00;52.00;;;;;;5118031;27;20100;-65
2022/03/13 01:25:12;;;;;;;1.30;0.30;;;19.90;51.90;;;;;;5120498;27;20044;-64
2022/03/13 01:27:41;;;;;;;0.20;0.10;;;19.90;51.80;;;;;;5131896;27;20042;-65
2022/03/13 01:30:10;;;;;;;1.05;0.68;;;19.90;51.80;;;;;;5120472;27;20050;-65
2022/03/13 01:32:37;;;;;;;0.68;0.50;;;19.90;51.80;;;;;;5118586;27;20058;-65
2022/03/13 01:35:04;;;;;;;0.90;0.20;;;19.90;51.80;;;;;;5116163;27;20047;-64
2022/03/13 01:37:34;;;;;;;0.80;0.20;;;19.90;51.80;;;;;;5127379;27;20055;-65
2022/03/13 01:40:07;;;;;;;1.88;0.40;;;19.90;51.80;;;;;;5120893;27;20048;-65
2022/03/13 01:42:34;;;;;;;0.15;0.13;;;19.80;51.70;;;;;;5120991;27;20035;-65
2022/03/13 01:45:03;;;;;;;4.40;0.20;;;19.80;51.70;;;;;;5104264;27;20315;-65
2022/03/13 01:47:30;;;;;;;0.20;0.10;;;19.80;51.70;;;;;;5121393;27;20043;-65
2022/03/13 01:49:58;;;;;;;0.40;0.20;;;19.80;51.70;;;;;;5114637;27;20395;-65
2022/03/13 01:52:27;;;;;;;1.67;0.20;;;19.80;51.70;;;;;;5128425;27;20127;-65
2022/03/13 01:54:55;;;;;;;0.28;0.15;;;19.80;51.60;;;;;;5126974;27;20046;-62
2022/03/13 01:57:23;;;;;;;1.08;0.17;;;19.80;51.60;;;;;;5123955;27;20128;-63
2022/03/13 01:59:52;;;;;;;1.38;0.20;;;19.80;51.50;;;;;;5106365;27;20051;-63
2022/03/13 02:02:28;;;;;;;0.20;0.15;;;19.80;51.50;;;;;;5121441;27;20126;-66
2022/03/13 02:04:57;;;;;;;0.50;0.30;;;19.80;51.50;;;;;;5124105;27;20126;-66
2022/03/13 02:07:27;;;;;;;1.13;0.22;;;19.80;51.60;;;;;;5120325;27;20031;-63
2022/03/13 02:09:55;;;;;;;2.05;0.10;;;19.80;51.60;;;;;;5122207;27;20050;-66
2022/03/13 02:12:25;;;;;;;2.47;0.10;;;19.70;51.70;;;;;;5125722;27;20103;-66
2022/03/13 02:14:52;;;;;;;2.95;0.20;;;19.80;51.80;;;;;;5124991;27;20047;-65
2022/03/13 02:17:27;;;;;;;0.57;0.57;;;19.70;51.70;;;;;;5112660;27;20502;-66
2022/03/13 02:19:55;;;;;;;0.52;0.10;;;19.80;51.70;;;;;;5119669;27;20100;-66
2022/03/13 02:22:23;;;;;;;0.30;0.10;;;19.70;51.60;;;;;;5119923;27;20040;-66
2022/03/13 02:24:51;;;;;;;3.20;0.10;;;19.70;51.60;;;;;;5118558;27;20047;-66
2022/03/13 02:27:22;;;;;;;4.80;0.10;;;19.70;51.60;;;;;;5124752;27;20031;-66
2022/03/13 02:29:50;;;;;;;0.10;0.10;;;19.70;51.60;;;;;;5118725;27;20041;-66
2022/03/13 02:32:19;;;;;;;1.67;0.13;;;19.70;51.60;;;;;;5111229;27;20031;-66
2022/03/13 02:34:46;;;;;;;0.70;0.10;;;19.70;51.60;;;;;;5113499;27;20036;-66
2022/03/13 02:37:30;;;;;;;0.77;0.10;;;19.70;51.60;;;;;;5124964;27;20039;-66
2022/03/13 02:39:59;;;;;;;1.08;0.10;;;19.70;51.70;;;;;;5118956;27;20119;-67
2022/03/13 02:42:27;;;;;;;0.20;0.10;;;19.70;51.80;;;;;;5118044;27;20083;-67
2022/03/13 02:44:54;;;;;;;0.13;0.13;;;19.60;52.40;;;;;;5100633;27;20035;-67
2022/03/13 02:47:21;;;;;;;0.40;0.10;;;19.60;52.40;;;;;;5119366;27;20081;-67
2022/03/13 02:49:48;;;;;;;0.22;0.22;;;19.60;51.90;;;;;;5110208;27;20046;-67
2022/03/13 02:52:15;;;;;;;4.20;0.30;;;19.60;52.00;;;;;;5117366;27;20040;-67
2022/03/13 02:54:42;;;;;;;0.20;0.13;;;19.60;52.10;;;;;;5128363;27;20037;-67
2022/03/13 02:57:11;;;;;;;0.20;0.20;;;19.60;52.10;;;;;;5120205;27;20051;-67
2022/03/13 02:59:38;;;;;;;0.10;0.10;;;19.60;52.80;;;;;;5112281;27;20050;-67
2022/03/13 03:02:05;;;;;;;0.22;0.10;;;19.60;52.20;;;;;;5116495;27;20046;-67
2022/03/13 03:04:32;;;;;;;0.60;0.35;;;19.50;52.30;;;;;;5125479;27;20043;-68
2022/03/13 03:07:03;;;;;;;8.35;0.20;;;19.50;52.40;;;;;;5121086;27;20138;-67
2022/03/13 03:09:32;;;;;;;0.30;0.30;;;19.50;52.40;;;;;;5123419;27;20034;-66
2022/03/13 03:12:01;;;;;;;0.10;0.10;;;19.50;52.40;;;;;;5118088;27;20135;-66
2022/03/13 03:14:31;;;;;;;2.15;0.10;;;19.50;52.40;;;;;;5123042;27;20464;-67
2022/03/13 03:16:59;;;;;;;0.20;0.20;;;19.50;52.30;;;;;;5113897;27;20544;-67
2022/03/13 03:19:26;;;;;;;0.20;0.20;;;19.50;52.40;;;;;;5104264;28;20048;-66
2022/03/13 03:21:54;;;;;;;0.10;0.10;;;19.40;52.20;;;;;;5119837;27;20040;-69
2022/03/13 03:24:22;;;;;;;0.17;0.15;;;19.40;52.20;;;;;;5117652;27;20046;-66
2022/03/13 03:26:53;;;;;;;0.22;0.10;;;19.40;52.20;;;;;;5115577;27;20043;-65
2022/03/13 03:29:20;;;;;;;0.10;0.10;;;19.40;52.20;;;;;;5118243;27;20680;-64
2022/03/13 03:31:50;;;;;;;1.85;0.15;;;19.40;52.20;;;;;;5098505;28;20035;-64
2022/03/13 03:34:19;;;;;;;2.67;0.20;;;19.40;52.20;;;;;;5127121;27;20043;-64
2022/03/13 03:36:48;;;;;;;0.50;0.15;;;19.40;52.20;;;;;;5126335;27;20048;-63
2022/03/13 03:39:17;;;;;;;0.20;0.20;;;19.40;52.20;;;;;;5126171;27;20031;-64
2022/03/13 03:41:45;;;;;;;0.45;0.10;;;19.30;52.10;;;;;;5115042;28;20031;-64
2022/03/13 03:44:13;;;;;;;0.10;0.10;;;19.40;52.10;;;;;;5116318;28;20122;-64
2022/03/13 03:46:41;;;;;;;0.82;0.10;;;19.40;52.10;;;;;;5119801;27;20043;-64
2022/03/13 03:49:10;;;;;;;0.10;0.10;;;19.30;52.00;;;;;;5119942;27;20423;-63
2022/03/13 03:51:37;;;;;;;0.20;0.10;;;19.30;52.30;;;;;;5119109;27;20518;-66
2022/03/13 03:54:06;;;;;;;1.75;0.20;;;19.30;52.00;;;;;;5120934;27;20047;-62
2022/03/13 03:56:34;;;;;;;7.32;0.22;;;19.30;52.10;;;;;;5121562;27;20439;-64
2022/03/13 03:59:01;;;;;;;0.38;0.38;;;19.30;52.20;;;;;;5116734;27;20051;-66
2022/03/13 04:01:34;;;;;;;0.20;0.20;;;19.30;52.30;;;;;;5123323;27;20032;-65
2022/03/13 04:04:01;;;;;;;7.05;0.10;;;19.30;53.00;;;;;;5130965;27;20043;-67
2022/03/13 04:06:33;;;;;;;0.10;0.10;;;19.30;52.30;;;;;;5124928;27;20360;-67
2022/03/13 04:09:00;;;;;;;0.10;0.10;;;19.30;52.30;;;;;;5124566;27;20043;-66
2022/03/13 04:11:27;;;;;;;0.55;0.20;;;19.20;52.10;;;;;;5121064;27;20035;-66
2022/03/13 04:13:54;;;;;;;0.60;0.10;;;19.30;52.20;;;;;;5128090;27;20048;-66
2022/03/13 04:16:21;;;;;;;3.03;0.10;;;19.20;52.10;;;;;;5104615;27;20040;-69
2022/03/13 04:18:48;;;;;;;1.08;0.10;;;19.20;52.10;;;;;;5126786;27;20044;-68
2022/03/13 04:21:15;;;;;;;4.28;0.52;;;19.20;52.10;;;;;;5121414;27;20067;-68
2022/03/13 04:23:43;;;;;;;0.57;0.20;;;19.20;52.10;;;;;;5116410;27;20500;-67
2022/03/13 04:26:10;;;;;;;0.15;0.10;;;19.20;52.10;;;;;;5120457;27;20159;-66
2022/03/13 04:28:37;;;;;;;0.10;0.10;;;19.20;52.10;;;;;;5124621;27;20054;-67
2022/03/13 04:31:08;;;;;;;0.20;0.20;;;19.20;52.00;;;;;;5123788;27;20036;-66
2022/03/13 04:33:37;;;;;;;0.75;0.20;;;19.20;52.00;;;;;;5102875;27;20119;-66
2022/03/13 04:36:10;;;;;;;1.00;0.10;;;19.20;52.00;;;;;;5124652;27;20491;-66
2022/03/13 04:38:37;;;;;;;1.30;0.10;;;19.20;52.00;;;;;;5120983;27;20047;-68
2022/03/13 04:41:05;;;;;;;0.65;0.10;;;19.20;51.90;;;;;;5115371;27;20443;-66
2022/03/13 04:43:32;;;;;;;0.10;0.10;;;19.20;51.90;;;;;;5119621;27;20053;-67
2022/03/13 04:46:00;;;;;;;0.20;0.13;;;19.20;51.90;;;;;;5129146;27;20036;-67
2022/03/13 04:48:27;;;;;;;0.50;0.13;;;19.20;51.90;;;;;;5122822;27;20035;-67
2022/03/13 04:50:54;;;;;;;0.77;0.30;;;19.20;51.80;;;;;;5116850;27;20114;-68
2022/03/13 04:53:21;;;;;;;1.05;0.13;;;19.20;51.80;;;;;;5121067;27;20035;-67
2022/03/13 04:55:48;;;;;;;0.10;0.10;;;19.20;51.80;;;;;;5125441;27;20047;-68
2022/03/13 04:58:18;;;;;;;0.25;0.10;;;19.20;51.70;;;;;;5123227;27;20061;-68
2022/03/13 05:00:48;;;;;;;3.20;0.10;;;19.20;51.70;;;;;;5124005;27;20384;-68
2022/03/13 05:03:15;;;;;;;0.10;0.10;;;19.20;51.70;;;;;;5124647;27;20043;-68
2022/03/13 05:05:42;;;;;;;0.85;0.10;;;19.10;51.60;;;;;;5125339;27;20113;-68
2022/03/13 05:08:15;;;;;;;0.30;0.10;;;19.10;51.50;;;;;;5118547;27;20035;-67
2022/03/13 05:10:43;;;;;;;0.77;0.10;;;19.20;51.60;;;;;;5121311;27;20410;-62
2022/03/13 05:13:12;;;;;;;2.95;0.10;;;19.20;51.50;;;;;;5122513;27;20123;-67
2022/03/13 05:15:41;;;;;;;0.75;0.10;;;19.10;51.40;;;;;;5121880;27;20092;-67
2022/03/13 05:18:09;;;;;;;0.10;0.10;;;19.20;51.50;;;;;;5124846;27;20038;-67
2022/03/13 05:20:36;;;;;;;0.10;0.00;;;19.10;51.40;;;;;;5119804;27;20043;-66
2022/03/13 05:23:04;;;;;;;1.10;0.10;;;19.10;51.40;;;;;;5115859;27;20039;-66
2022/03/13 05:25:32;;;;;;;2.78;0.10;;;19.10;51.30;;;;;;5117188;27;20047;-66
2022/03/13 05:27:59;;;;;;;2.50;0.10;;;19.10;51.30;;;;;;5127416;27;20070;-67
2022/03/13 05:30:27;;;;;;;0.30;0.10;;;19.10;51.20;;;;;;5120753;27;20043;-67
2022/03/13 05:32:56;;;;;;;0.17;0.10;;;19.10;51.20;;;;;;5100317;27;20138;-66
2022/03/13 05:35:23;;;;;;;0.10;0.10;;;19.20;51.30;;;;;;5118887;27;20039;-65
2022/03/13 05:37:51;;;;;;;0.10;0.10;;;19.10;51.20;;;;;;5105942;27;20043;-67
2022/03/13 05:40:20;;;;;;;0.13;0.13;;;19.10;51.10;;;;;;5120632;27;20403;-67
2022/03/13 05:42:48;;;;;;;0.13;0.10;;;19.10;51.10;;;;;;5124021;27;20087;-66
2022/03/13 05:45:19;;;;;;;1.13;0.45;;;19.10;51.10;;;;;;5123839;27;20034;-66
2022/03/13 05:47:47;;;;;;;0.10;0.10;;;19.10;51.10;;;;;;5123267;27;20049;-67
2022/03/13 05:50:16;;;;;;;0.28;0.10;;;19.10;51.10;;;;;;5112363;27;20031;-67
2022/03/13 05:52:45;;;;;;;0.80;0.10;;;19.10;51.10;;;;;;5119515;27;20495;-67
2022/03/13 05:55:12;;;;;;;0.10;0.10;;;19.10;51.10;;;;;;5129286;27;20042;-65
2022/03/13 05:57:39;;;;;;;0.10;0.10;;;19.10;51.10;;;;;;5125911;27;20043;-64
2022/03/13 06:00:09;;;;;;;0.10;0.10;;;19.10;51.10;;;;;;5122808;27;20631;-62
2022/03/13 06:02:47;;;;;;;0.30;0.10;;;19.20;51.20;;;;;;5127253;27;20043;-64
2022/03/13 06:05:17;;;;;;;0.20;0.10;;;19.10;51.10;;;;;;5125281;27;20495;-65
2022/03/13 06:07:44;;;;;;;0.38;0.10;;;19.10;51.10;;;;;;5106199;27;20169;-64
2022/03/13 06:10:14;;;;;;;0.10;0.10;;;19.10;51.00;;;;;;5123643;27;20059;-65
2022/03/13 06:12:41;;;;;;;0.10;0.10;;;19.10;51.10;;;;;;5118927;27;20063;-65
2022/03/13 06:15:12;;;;;;;0.85;0.10;;;19.10;51.00;;;;;;5105420;27;20062;-65
2022/03/13 06:17:43;;;;;;;0.82;0.10;;;19.10;51.00;;;;;;5114546;27;20066;-63
2022/03/13 06:20:12;;;;;;;1.17;0.10;;;19.10;51.00;;;;;;5122284;27;20039;-64
2022/03/13 06:22:42;;;;;;;0.10;0.10;;;19.10;50.90;;;;;;5120576;27;20058;-63
2022/03/13 06:25:11;;;;;;;0.10;0.10;;;19.10;51.00;;;;;;5127336;27;20032;-62
2022/03/13 06:27:39;;;;;;;0.03;0.03;;;19.10;50.90;;;;;;5128531;27;20081;-64
2022/03/13 06:30:12;;;;;;;2.65;0.10;;;19.10;50.80;;;;;;5128399;27;20035;-65
2022/03/13 06:32:40;;;;;;;0.95;0.10;;;19.10;50.90;;;;;;5114777;27;20490;-65
2022/03/13 06:35:08;;;;;;;0.20;0.10;;;19.10;50.80;;;;;;5118227;27;20815;-65
2022/03/13 06:37:35;;;;;;;0.30;0.10;;;19.20;50.90;;;;;;5124792;27;20043;-65
2022/03/13 06:40:06;;;;;;;0.10;0.10;;;19.10;50.80;;;;;;5120089;27;20059;-65
2022/03/13 06:42:33;;;;;;;0.30;0.10;;;19.10;50.80;;;;;;5120300;27;20034;-65
2022/03/13 06:45:00;;;;;;;0.30;0.10;;;19.10;50.70;;;;;;5118423;27;20051;-65
2022/03/13 06:47:27;;;;;;;0.30;0.10;;;19.10;50.70;;;;;;5122422;27;20523;-65
2022/03/13 06:49:54;;;;;;;0.10;0.03;;;19.20;50.70;;;;;;5122099;27;20039;-66
2022/03/13 06:52:21;;;;;;;0.30;0.30;;;19.20;50.60;;;;;;5120680;27;20032;-65
2022/03/13 06:54:48;;;;;;;0.90;0.10;;;19.20;50.60;;;;;;5130152;27;20038;-65
2022/03/13 06:57:18;;;;;;;0.55;0.05;;;19.20;50.50;;;;;;5121730;27;20073;-64
2022/03/13 06:59:46;;;;;;;0.10;0.10;;;19.20;50.50;;;;;;5113257;27;20624;-65
2022/03/13 07:02:13;;;;;;;0.10;0.10;;;19.20;50.50;;;;;;5110469;27;20502;-65
2022/03/13 07:04:41;;;;;;;0.10;0.05;;;19.20;50.40;;;;;;5123374;27;20122;-65
2022/03/13 07:07:10;;;;;;;0.10;0.10;;;19.30;50.40;;;;;;5116065;27;20104;-65
2022/03/13 07:09:37;;;;;;;0.10;0.10;;;19.30;50.40;;;;;;5125676;27;20556;-64
2022/03/13 07:12:05;;;;;;;0.30;0.10;;;19.30;50.30;;;;;;5118270;27;20049;-62
2022/03/13 07:14:35;;;;;;;0.10;0.10;;;19.30;50.20;;;;;;5095226;28;20399;-63
2022/03/13 07:17:02;;;;;;;0.10;0.10;;;19.30;50.20;;;;;;5102133;27;20050;-63
2022/03/13 07:19:29;;;;;;;0.10;0.10;;;19.30;50.10;;;;;;5125848;27;20039;-63
2022/03/13 07:21:56;;;;;;;0.10;0.10;;;19.30;50.00;;;;;;5122638;28;20047;-64
2022/03/13 07:24:23;;;;;;;0.68;0.00;;;19.40;50.00;;;;;;5105960;27;20042;-65
2022/03/13 07:26:50;;;;;;;0.10;0.10;;;19.40;49.90;;;;;;5116974;27;20045;-66
2022/03/13 07:29:17;;;;;;;0.10;0.00;;;19.40;49.80;;;;;;5124480;27;20680;-65
2022/03/13 07:31:46;;;;;;;1.63;0.10;;;19.40;49.80;;;;;;5132729;27;20043;-65
2022/03/13 07:34:13;;;;;;;0.10;0.10;;;19.40;49.70;;;;;;5126507;27;20047;-65
2022/03/13 07:36:40;;;;;;;0.10;0.00;;;19.40;49.60;;;;;;5136061;27;20544;-65
2022/03/13 07:39:07;;;;;;;0.10;0.10;;;19.40;49.60;;;;;;5134312;27;20175;-65
2022/03/13 07:41:34;;;;;;;0.20;0.20;;;19.50;49.60;;;;;;5116576;27;20041;-65
2022/03/13 07:44:03;;;;;;;0.20;0.10;;;19.50;49.50;;;;;;5120590;27;20039;-64
2022/03/13 07:46:31;;;;;;;0.00;0.00;;;19.50;49.50;;;;;;5130682;27;20039;-65
2022/03/13 07:48:59;;;;;;;0.05;0.00;;;19.50;49.50;;;;;;5132290;27;20054;-64
2022/03/13 07:51:26;;;;;;;0.10;0.10;;;19.50;49.50;;;;;;5130153;27;20061;-64
2022/03/13 07:53:53;;;;;;;0.10;0.10;;;19.60;49.40;;;;;;5121808;27;20046;-65
2022/03/13 07:56:20;;;;;;;0.10;0.10;;;19.60;49.40;;;;;;5117186;27;20039;-65
2022/03/13 07:58:47;;;;;;;0.30;0.10;;;19.50;49.30;;;;;;5120454;27;20047;-64
2022/03/13 08:01:14;;;;;;;0.10;0.08;;;19.60;49.30;;;;;;5133081;27;20054;-64
2022/03/13 08:03:44;;;;;;;0.30;0.10;;;19.60;49.30;;;;;;5117903;27;20044;-65
2022/03/13 08:06:13;;;;;;;0.20;0.00;;;19.60;49.20;;;;;;5123286;27;20418;-64
2022/03/13 08:08:40;;;;;;;0.10;0.10;;;19.60;49.10;;;;;;5119308;27;20035;-65
2022/03/13 08:11:07;;;;;;;1.48;0.10;;;19.60;49.10;;;;;;5126566;27;20057;-64
2022/03/13 08:13:34;;;;;;;0.00;0.00;;;19.60;49.00;;;;;;5130470;27;20031;-66
2022/03/13 08:16:01;;;;;;;0.15;0.10;;;19.70;49.00;;;;;;5111246;27;20122;-65
2022/03/13 08:18:29;;;;;;;0.10;0.03;;;19.70;48.90;;;;;;5129841;27;20039;-65
2022/03/13 08:20:56;;;;;;;0.10;0.10;;;19.70;48.90;;;;;;5132252;27;20047;-65
2022/03/13 08:23:25;;;;;;;0.25;0.10;;;19.70;48.80;;;;;;5130678;27;20035;-64
2022/03/13 08:25:52;;;;;;;0.13;0.10;;;19.70;48.70;;;;;;5100276;27;20154;-66
2022/03/13 08:28:19;;;;;;;0.10;0.10;;;19.80;48.70;;;;;;5114746;27;20182;-65
2022/03/13 08:30:46;;;;;;;0.10;0.10;;;19.80;48.60;;;;;;5129794;27;20073;-64
2022/03/13 08:33:13;;;;;;;0.08;0.08;;;19.80;48.60;;;;;;5124412;27;20060;-65
2022/03/13 08:35:40;;;;;;;1.10;0.10;;;19.80;48.50;;;;;;5123235;27;20046;-66
2022/03/13 08:38:07;;;;;;;1.65;0.10;;;19.80;48.60;;;;;;5125464;27;20502;-69
2022/03/13 08:40:36;;;;;;;0.10;0.10;;;19.90;48.60;;;;;;5122497;27;20054;-68
2022/03/13 08:43:03;;;;;;;0.10;0.10;;;19.90;48.60;;;;;;5122818;27;20491;-69
2022/03/13 08:45:30;;;;;;;0.38;0.10;;;19.90;48.50;;;;;;5129931;27;20043;-67
2022/03/13 08:47:57;;;;;;;0.10;0.10;;;19.90;48.50;;;;;;5124434;27;20046;-68
2022/03/13 08:50:24;;;;;;;0.52;0.22;;;20.00;48.50;;;;;;5115248;27;20467;-69
2022/03/13 08:52:51;;;;;;;0.75;0.28;;;20.00;48.40;;;;;;5122528;27;20043;-68
2022/03/13 08:55:18;;;;;;;0.25;0.10;;;20.00;48.40;;;;;;5130885;27;20046;-68
2022/03/13 08:57:47;;;;;;;0.30;0.30;;;20.00;48.30;;;;;;5125380;27;20118;-70
2022/03/13 09:00:16;;;;;;;0.10;0.10;;;20.10;48.20;;;;;;5123361;27;20385;-70
2022/03/13 09:02:43;;;;;;;1.20;0.10;;;20.10;48.10;;;;;;5121305;27;20147;-69
2022/03/13 09:05:11;;;;;;;1.20;0.10;;;20.10;48.60;;;;;;5113445;27;20039;-69
2022/03/13 09:07:38;;;;;;;0.22;0.10;;;20.20;48.00;;;;;;5116784;27;20036;-68
2022/03/13 09:10:07;;;;;;;0.40;0.10;;;20.30;48.50;;;;;;5128615;27;20404;-68
2022/03/13 09:12:34;;;;;;;0.40;0.30;;;20.20;47.70;;;;;;5102927;27;20036;-68
2022/03/13 09:15:05;;;;;;;0.25;0.20;;;20.30;47.60;;;;;;5123429;27;20039;-71
2022/03/13 09:17:32;;;;;;;0.10;0.10;;;20.30;47.50;;;;;;5124244;27;20499;-69
2022/03/13 09:19:59;;;;;;;0.20;0.17;;;20.40;47.50;;;;;;5127223;27;20031;-70
2022/03/13 09:22:29;;;;;;;0.30;0.30;;;20.40;47.50;;;;;;5142434;27;20042;-68
2022/03/13 09:24:57;;;;;;;1.17;0.45;;;20.40;47.30;;;;;;5129267;27;20104;-68
2022/03/13 09:27:24;;;;;;;0.20;0.20;;;20.50;47.30;;;;;;5131006;27;20034;-68
2022/03/13 09:29:51;;;;;;;0.73;0.17;;;20.50;47.10;;;;;;5119686;27;20039;-67
2022/03/13 09:32:21;;;;;;;0.10;0.10;;;20.60;47.10;;;;;;5128652;27;20042;-68
2022/03/13 09:34:48;;;;;;;0.10;0.10;;;20.60;47.10;;;;;;5118210;27;20526;-67
2022/03/13 09:37:16;;;;;;;0.10;0.10;;;20.70;47.00;;;;;;5127836;27;20130;-67
2022/03/13 09:39:43;;;;;;;0.10;0.10;;;20.70;46.80;;;;;;5122406;27;20157;-67
2022/03/13 09:42:10;;;;;;;0.30;0.10;;;20.80;46.70;;;;;;5121079;27;20052;-67
2022/03/13 09:44:37;;;;;;;0.20;0.20;;;20.80;47.10;;;;;;5128635;27;20117;-67
2022/03/13 09:47:06;;;;;;;1.05;0.15;;;20.70;46.40;;;;;;5124358;27;20044;-67
2022/03/13 09:49:35;;;;;;;0.43;0.10;;;20.80;46.40;;;;;;5116602;27;20043;-68
2022/03/13 09:52:02;;;;;;;0.10;0.10;;;20.80;46.40;;;;;;5124546;27;20138;-69
2022/03/13 09:54:30;;;;;;;0.90;0.10;;;20.80;46.30;;;;;;5129807;27;20038;-64
2022/03/13 09:56:56;;;;;;;0.10;0.10;;;20.80;46.40;;;;;;5123423;27;20043;-63
2022/03/13 09:59:23;;;;;;;0.30;0.10;;;20.80;46.40;;;;;;5113865;27;20049;-64
2022/03/13 10:01:50;;;;;;;0.55;0.10;;;20.80;46.50;;;;;;5102604;27;20052;-64
2022/03/13 10:04:18;;;;;;;0.40;0.20;;;20.80;46.50;;;;;;5118448;27;20122;-63
2022/03/13 10:07:06;;;;;;;0.38;0.10;;;20.80;46.50;;;;;;5117616;27;20073;-64
2022/03/13 10:09:34;;;;;;;0.85;0.47;;;20.90;46.50;;;;;;5124721;27;20095;-63
2022/03/13 10:12:10;;;;;;;0.10;0.03;;;20.80;46.50;;;;;;5121378;27;20486;-64
2022/03/13 10:14:39;;;;;;;1.48;0.45;;;20.90;46.50;;;;;;5112446;27;20051;-64
2022/03/13 10:17:14;;;;;;;0.00;0.00;;;20.90;46.40;;;;;;5116000;27;20069;-64
2022/03/13 10:19:41;;;;;;;1.85;0.10;;;20.90;46.50;;;;;;5125154;27;20046;-65
2022/03/13 10:22:10;;;;;;;3.50;0.10;;;21.00;46.50;;;;;;5126307;27;20035;-64
2022/03/13 10:24:42;;;;;;;1.17;0.10;;;21.00;46.60;;;;;;5125051;27;20039;-64
2022/03/13 10:27:11;;;;;;;0.40;0.10;;;21.00;46.70;;;;;;5128253;27;20502;-64
2022/03/13 10:29:38;;;;;;;3.47;0.35;;;21.00;46.70;;;;;;5124622;27;20526;-62
2022/03/13 10:32:06;;;;;;;0.13;0.13;;;21.10;46.80;;;;;;5124217;27;29971;-63
2022/03/13 10:34:33;;;;;;;1.15;0.10;;;21.10;46.70;;;;;;5121214;27;20035;-56
2022/03/13 10:37:02;;;;;;;5.32;0.10;;;21.10;46.20;;;;;;5126541;27;20047;-55
2022/03/13 10:39:32;;;;;;;0.63;0.08;;;21.10;46.40;;;;;;5123616;27;20046;-55
2022/03/13 10:42:02;;;;;;;0.30;0.00;;;21.20;46.80;;;;;;5098436;27;20066;-57
2022/03/13 10:44:34;;;;;;;1.00;0.10;;;21.20;46.00;;;;;;5114499;27;20502;-56
2022/03/13 10:47:03;;;;;;;0.10;0.10;;;21.40;45.80;;;;;;5124022;27;20092;-64
2022/03/13 10:49:36;;;;;;;0.65;0.40;;;21.50;45.60;;;;;;5120669;27;20035;-60
2022/03/13 10:52:35;;;;;;;0.95;0.32;;;21.70;45.60;;;;;;5122189;27;20035;-59
2022/03/13 10:55:21;;;;;;;0.15;0.15;;;21.90;45.30;;;;;;5125422;27;20047;-61
2022/03/13 10:57:49;;;;;;;0.20;0.20;;;22.00;45.20;;;;;;5123774;27;20074;-60
2022/03/13 11:00:17;;;;;;;1.65;0.00;;;22.20;44.70;;;;;;5123274;27;20470;-57
2022/03/13 11:02:44;;;;;;;0.10;0.00;;;22.30;44.40;;;;;;5118032;27;20661;-55
2022/03/13 11:05:11;;;;;;;0.10;0.00;;;22.40;44.00;;;;;;5110969;27;20391;-58
2022/03/13 11:07:38;;;;;;;0.10;0.00;;;22.60;43.70;;;;;;5114404;27;20058;-63
2022/03/13 11:10:07;;;;;;;2.10;0.10;;;22.70;43.30;;;;;;5127780;27;20049;-63
2022/03/13 11:12:37;;;;;;;0.30;0.00;;;22.80;43.00;;;;;;5101117;27;20036;-64
2022/03/13 11:15:08;;;;;;;0.20;0.20;;;22.90;42.70;;;;;;5115064;27;20039;-63
2022/03/13 11:17:35;;;;;;;0.30;0.00;;;23.00;42.40;;;;;;5125762;27;20422;-64
2022/03/13 11:20:08;;;;;;;0.90;0.00;;;23.10;42.20;;;;;;5108124;27;20039;-51
2022/03/13 11:22:35;;;;;;;0.00;0.00;;;23.30;42.00;;;;;;5125325;27;20035;-56
2022/03/13 11:25:05;;;;;;;0.45;0.10;;;23.50;42.40;;;;;;5122175;27;20039;-56
2022/03/13 11:27:35;;;;;;;0.10;0.10;;;23.60;41.50;;;;;;5120428;27;20223;-54
2022/03/13 11:30:05;;;;;;;5.45;0.50;;;23.60;41.20;;;;;;5126695;27;20777;-56
2022/03/13 11:32:42;;;;;;;0.13;0.13;;;23.80;41.10;;;;;;5120915;28;20063;-53
2022/03/13 11:35:27;;;;;;;0.45;0.00;;;23.80;40.80;;;;;;5118929;27;20133;-55
2022/03/13 11:37:55;;;;;;;2.40;0.13;;;23.90;40.50;;;;;;5122781;27;20043;-60
2022/03/13 11:40:34;;;;;;;0.90;0.00;;;24.00;40.40;;;;;;5124919;27;20192;-62
2022/03/13 11:43:09;;;;;;;0.20;0.00;;;24.10;40.20;;;;;;5122571;27;20721;-60
2022/03/13 11:45:39;;;;;;;0.10;0.05;;;24.20;40.00;;;;;;5124226;27;20130;-68
2022/03/13 11:48:36;;;;;;;0.10;0.00;;;24.20;39.80;;;;;;5125222;27;20039;-57
2022/03/13 11:51:05;;;;;;;;;;;24.30;39.70;;;;;;5108415;27;20043;-55
2022/03/13 11:53:42;;;;;;;0.75;0.10;;;24.30;39.60;;;;;;5122883;27;19923;-56
2022/03/13 11:56:10;;;;;;;0.30;0.30;;;24.40;39.80;;;;;;5121815;27;21086;-62
2022/03/13 11:58:42;;;;;;;0.10;0.10;;;24.40;39.60;;;;;;5118557;27;20533;-61
2022/03/13 12:01:12;;;;;;;1.27;0.10;;;24.60;39.60;;;;;;5125975;27;20051;-58
2022/03/13 12:03:39;;;;;;;0.08;0.08;;;24.60;39.40;;;;;;5123956;27;20122;-57
2022/03/13 12:06:06;;;;;;;4.50;0.10;;;24.60;39.30;;;;;;5124742;27;20088;-58
2022/03/13 12:09:05;;;;;;;0.40;0.10;;;24.70;39.30;;;;;;5120122;28;20036;-60
2022/03/13 12:11:38;;;;;;;0.10;0.10;;;24.80;39.10;;;;;;5119149;27;20047;-50
2022/03/13 12:14:10;;;;;;;0.00;0.00;;;24.90;39.10;;;;;;5121312;28;20123;-50
2022/03/13 12:16:38;;;;;;;0.10;0.10;;;24.90;38.90;;;;;;5125641;27;20421;-54
2022/03/13 12:19:09;;;;;;;0.10;0.00;;;24.90;38.80;;;;;;5129941;27;20043;-58
2022/03/13 12:21:37;;;;;;;0.40;0.10;;;25.00;38.70;;;;;;5123381;27;20076;-59
2022/03/13 12:24:14;;;;;;;5.82;0.10;;;25.00;38.60;;;;;;5120009;27;20028;-56
2022/03/13 12:26:42;;;;;;;0.90;0.10;;;25.10;38.50;;;;;;5116285;27;20071;-51
2022/03/13 12:29:13;;;;;;;0.10;0.10;;;25.10;38.40;;;;;;5120446;27;20049;-57
2022/03/13 12:31:41;;;;;;;0.63;0.10;;;25.20;38.40;;;;;;5127940;27;20555;-56
2022/03/13 12:34:09;;;;;;;0.20;0.10;;;25.20;38.40;;;;;;5127143;27;20031;-57
2022/03/13 12:36:37;;;;;;;0.15;0.00;;;25.30;38.20;;;;;;5126547;27;20067;-58
2022/03/13 12:39:10;;;;;;;0.10;0.10;;;25.30;38.00;;;;;;5118810;27;20037;-61
2022/03/13 12:41:39;;;;;;;0.38;0.13;;;25.40;37.90;;;;;;5122191;27;20126;-58
2022/03/13 12:44:06;;;;;;;0.00;0.00;;;25.50;37.80;;;;;;5126007;27;20543;-57
2022/03/13 12:46:35;;;;;;;0.10;0.10;;;25.60;37.60;;;;;;5131954;27;20163;-59
2022/03/13 12:49:04;;;;;;;0.20;0.10;;;25.60;37.40;;;;;;5132184;27;20035;-59
2022/03/13 12:51:38;;;;;;;0.47;0.10;;;25.60;37.30;;;;;;5126989;27;20041;-63
2022/03/13 12:54:07;;;;;;;0.20;0.20;;;25.60;37.30;;;;;;5126667;27;20451;-57
2022/03/13 12:56:35;;;;;;;0.68;0.10;;;25.60;37.40;;;;;;5124189;27;20118;-55